sensor_id;sensor_type;location;lat;lon;timestamp;temperature;humidity
40059;SHT31;25763;49.972;8.568;2022-07-17T00:01:53;16.35;59.84
40059;SHT31;25763;49.972;8.568;2022-07-17T00:04:18;16.32;59.83
40059;SHT31;25763;49.972;8.568;2022-07-17T00:06:44;16.29;59.44
40059;SHT31;25763;49.972;8.568;2022-07-17T00:09:09;16.20;59.19
40059;SHT31;25763;49.972;8.568;2022-07-17T00:11:35;16.14;59.37
40059;SHT31;25763;49.972;8.568;2022-07-17T00:14:00;16.10;59.30
40059;SHT31;25763;49.972;8.568;2022-07-17T00:16:25;16.03;59.58
40059;SHT31;25763;49.972;8.568;2022-07-17T00:18:51;15.84;60.20
40059;SHT31;25763;49.972;8.568;2022-07-17T00:21:16;15.80;60.47
40059;SHT31;25763;49.972;8.568;2022-07-17T00:23:42;15.63;60.61
40059;SHT31;25763;49.972;8.568;2022-07-17T00:26:07;15.56;60.95
40059;SHT31;25763;49.972;8.568;2022-07-17T00:28:33;15.38;61.56
40059;SHT31;25763;49.972;8.568;2022-07-17T00:30:58;15.24;62.00
40059;SHT31;25763;49.972;8.568;2022-07-17T00:33:23;15.11;63.45
40059;SHT31;25763;49.972;8.568;2022-07-17T00:35:49;15.04;63.93
40059;SHT31;25763;49.972;8.568;2022-07-17T00:38:14;14.96;64.97
40059;SHT31;25763;49.972;8.568;2022-07-17T00:40:40;14.85;64.76
40059;SHT31;25763;49.972;8.568;2022-07-17T00:43:05;14.73;64.93
40059;SHT31;25763;49.972;8.568;2022-07-17T00:45:31;14.67;65.18
40059;SHT31;25763;49.972;8.568;2022-07-17T00:48:02;14.62;65.43
40059;SHT31;25763;49.972;8.568;2022-07-17T00:50:54;14.75;65.53
40059;SHT31;25763;49.972;8.568;2022-07-17T00:53:20;14.83;64.63
40059;SHT31;25763;49.972;8.568;2022-07-17T00:55:47;14.80;63.67
40059;SHT31;25763;49.972;8.568;2022-07-17T00:58:23;14.86;63.58
40059;SHT31;25763;49.972;8.568;2022-07-17T01:00:51;15.00;64.37
40059;SHT31;25763;49.972;8.568;2022-07-17T01:03:17;15.12;64.43
40059;SHT31;25763;49.972;8.568;2022-07-17T01:05:43;15.21;63.80
40059;SHT31;25763;49.972;8.568;2022-07-17T01:08:09;15.27;63.65
40059;SHT31;25763;49.972;8.568;2022-07-17T01:10:34;15.27;63.54
40059;SHT31;25763;49.972;8.568;2022-07-17T01:13:01;15.32;63.05
40059;SHT31;25763;49.972;8.568;2022-07-17T01:15:26;15.37;63.14
40059;SHT31;25763;49.972;8.568;2022-07-17T01:17:52;15.34;62.77
40059;SHT31;25763;49.972;8.568;2022-07-17T01:20:17;15.31;62.26
40059;SHT31;25763;49.972;8.568;2022-07-17T01:22:45;15.27;62.18
40059;SHT31;25763;49.972;8.568;2022-07-17T01:25:11;15.30;62.51
40059;SHT31;25763;49.972;8.568;2022-07-17T01:27:37;15.03;62.69
40059;SHT31;25763;49.972;8.568;2022-07-17T01:30:03;14.85;63.00
40059;SHT31;25763;49.972;8.568;2022-07-17T01:32:37;14.80;63.18
40059;SHT31;25763;49.972;8.568;2022-07-17T01:35:03;14.59;63.26
40059;SHT31;25763;49.972;8.568;2022-07-17T01:37:29;14.50;63.62
40059;SHT31;25763;49.972;8.568;2022-07-17T01:39:55;14.47;63.83
40059;SHT31;25763;49.972;8.568;2022-07-17T01:42:23;14.33;64.52
40059;SHT31;25763;49.972;8.568;2022-07-17T01:44:49;14.16;65.28
40059;SHT31;25763;49.972;8.568;2022-07-17T01:47:16;14.09;64.64
40059;SHT31;25763;49.972;8.568;2022-07-17T01:49:48;14.02;64.78
40059;SHT31;25763;49.972;8.568;2022-07-17T01:52:14;13.98;65.00
40059;SHT31;25763;49.972;8.568;2022-07-17T01:54:40;13.98;65.17
40059;SHT31;25763;49.972;8.568;2022-07-17T01:57:05;13.93;65.25
40059;SHT31;25763;49.972;8.568;2022-07-17T01:59:31;13.86;65.50
40059;SHT31;25763;49.972;8.568;2022-07-17T02:01:56;13.82;65.37
40059;SHT31;25763;49.972;8.568;2022-07-17T02:04:21;13.89;65.24
40059;SHT31;25763;49.972;8.568;2022-07-17T02:06:47;13.99;65.41
40059;SHT31;25763;49.972;8.568;2022-07-17T02:09:12;14.08;65.27
40059;SHT31;25763;49.972;8.568;2022-07-17T02:11:37;14.26;65.27
40059;SHT31;25763;49.972;8.568;2022-07-17T02:14:03;14.10;64.44
40059;SHT31;25763;49.972;8.568;2022-07-17T02:16:28;14.06;64.53
40059;SHT31;25763;49.972;8.568;2022-07-17T02:18:54;13.98;64.88
40059;SHT31;25763;49.972;8.568;2022-07-17T02:21:19;13.91;65.11
40059;SHT31;25763;49.972;8.568;2022-07-17T02:23:44;13.81;65.45
40059;SHT31;25763;49.972;8.568;2022-07-17T02:26:09;13.73;65.79
40059;SHT31;25763;49.972;8.568;2022-07-17T02:28:35;13.64;66.19
40059;SHT31;25763;49.972;8.568;2022-07-17T02:31:01;13.54;66.21
40059;SHT31;25763;49.972;8.568;2022-07-17T02:33:26;13.75;66.40
40059;SHT31;25763;49.972;8.568;2022-07-17T02:35:51;13.88;66.45
40059;SHT31;25763;49.972;8.568;2022-07-17T02:38:17;14.00;65.64
40059;SHT31;25763;49.972;8.568;2022-07-17T02:40:42;13.96;65.42
40059;SHT31;25763;49.972;8.568;2022-07-17T02:43:08;13.95;65.57
40059;SHT31;25763;49.972;8.568;2022-07-17T02:45:33;13.92;65.58
40059;SHT31;25763;49.972;8.568;2022-07-17T02:47:58;13.85;65.53
40059;SHT31;25763;49.972;8.568;2022-07-17T02:50:24;13.70;65.86
40059;SHT31;25763;49.972;8.568;2022-07-17T02:52:49;13.59;65.98
40059;SHT31;25763;49.972;8.568;2022-07-17T02:55:16;13.41;66.52
40059;SHT31;25763;49.972;8.568;2022-07-17T02:57:42;13.30;66.99
40059;SHT31;25763;49.972;8.568;2022-07-17T03:00:10;13.29;67.11
40059;SHT31;25763;49.972;8.568;2022-07-17T03:02:37;13.20;67.44
40059;SHT31;25763;49.972;8.568;2022-07-17T03:05:03;13.14;67.65
40059;SHT31;25763;49.972;8.568;2022-07-17T03:07:29;13.11;67.85
40059;SHT31;25763;49.972;8.568;2022-07-17T03:09:54;13.18;67.66
40059;SHT31;25763;49.972;8.568;2022-07-17T03:12:20;13.12;67.93
40059;SHT31;25763;49.972;8.568;2022-07-17T03:14:45;13.18;67.76
40059;SHT31;25763;49.972;8.568;2022-07-17T03:17:10;13.20;67.65
40059;SHT31;25763;49.972;8.568;2022-07-17T03:19:36;13.27;67.57
40059;SHT31;25763;49.972;8.568;2022-07-17T03:22:01;13.27;67.76
40059;SHT31;25763;49.972;8.568;2022-07-17T03:24:27;13.32;67.79
40059;SHT31;25763;49.972;8.568;2022-07-17T03:26:52;13.27;67.73
40059;SHT31;25763;49.972;8.568;2022-07-17T03:29:17;13.18;67.88
40059;SHT31;25763;49.972;8.568;2022-07-17T03:31:44;13.19;67.80
40059;SHT31;25763;49.972;8.568;2022-07-17T03:34:09;13.09;67.96
40059;SHT31;25763;49.972;8.568;2022-07-17T03:36:35;13.14;68.07
40059;SHT31;25763;49.972;8.568;2022-07-17T03:39:00;13.08;68.13
40059;SHT31;25763;49.972;8.568;2022-07-17T03:41:26;12.97;68.56
40059;SHT31;25763;49.972;8.568;2022-07-17T03:43:51;12.98;68.43
40059;SHT31;25763;49.972;8.568;2022-07-17T03:46:16;12.99;68.49
40059;SHT31;25763;49.972;8.568;2022-07-17T03:48:42;12.97;68.60
40059;SHT31;25763;49.972;8.568;2022-07-17T03:51:07;12.97;68.70
40059;SHT31;25763;49.972;8.568;2022-07-17T03:53:33;13.01;68.51
40059;SHT31;25763;49.972;8.568;2022-07-17T03:55:58;13.04;68.85
40059;SHT31;25763;49.972;8.568;2022-07-17T03:58:23;13.18;68.79
40059;SHT31;25763;49.972;8.568;2022-07-17T04:00:49;13.16;68.05
40059;SHT31;25763;49.972;8.568;2022-07-17T04:03:14;13.12;68.19
40059;SHT31;25763;49.972;8.568;2022-07-17T04:05:39;13.16;68.11
40059;SHT31;25763;49.972;8.568;2022-07-17T04:08:05;13.20;68.23
40059;SHT31;25763;49.972;8.568;2022-07-17T04:10:30;13.27;67.92
40059;SHT31;25763;49.972;8.568;2022-07-17T04:12:56;13.36;68.38
40059;SHT31;25763;49.972;8.568;2022-07-17T04:15:21;13.44;67.91
40059;SHT31;25763;49.972;8.568;2022-07-17T04:18:10;13.39;67.32
40059;SHT31;25763;49.972;8.568;2022-07-17T04:20:35;13.41;67.40
40059;SHT31;25763;49.972;8.568;2022-07-17T04:23:00;13.44;67.56
40059;SHT31;25763;49.972;8.568;2022-07-17T04:25:26;13.50;67.43
40059;SHT31;25763;49.972;8.568;2022-07-17T04:27:51;13.57;67.13
40059;SHT31;25763;49.972;8.568;2022-07-17T04:30:16;13.59;66.93
40059;SHT31;25763;49.972;8.568;2022-07-17T04:32:42;13.55;66.92
40059;SHT31;25763;49.972;8.568;2022-07-17T04:35:07;13.51;67.13
40059;SHT31;25763;49.972;8.568;2022-07-17T04:37:33;13.65;67.12
40059;SHT31;25763;49.972;8.568;2022-07-17T04:39:58;13.77;67.04
40059;SHT31;25763;49.972;8.568;2022-07-17T04:42:23;13.81;66.63
40059;SHT31;25763;49.972;8.568;2022-07-17T04:44:49;13.86;66.63
40059;SHT31;25763;49.972;8.568;2022-07-17T04:47:14;13.85;66.58
40059;SHT31;25763;49.972;8.568;2022-07-17T04:49:39;13.86;66.27
40059;SHT31;25763;49.972;8.568;2022-07-17T04:52:05;13.93;66.25
40059;SHT31;25763;49.972;8.568;2022-07-17T04:54:30;13.99;66.32
40059;SHT31;25763;49.972;8.568;2022-07-17T04:56:55;14.09;66.46
40059;SHT31;25763;49.972;8.568;2022-07-17T04:59:21;14.16;65.96
40059;SHT31;25763;49.972;8.568;2022-07-17T05:01:46;14.23;65.65
40059;SHT31;25763;49.972;8.568;2022-07-17T05:04:11;14.34;66.37
40059;SHT31;25763;49.972;8.568;2022-07-17T05:06:37;14.42;65.46
40059;SHT31;25763;49.972;8.568;2022-07-17T05:09:02;14.52;65.37
40059;SHT31;25763;49.972;8.568;2022-07-17T05:11:27;14.65;66.03
40059;SHT31;25763;49.972;8.568;2022-07-17T05:13:53;14.68;65.49
40059;SHT31;25763;49.972;8.568;2022-07-17T05:16:18;14.76;65.14
40059;SHT31;25763;49.972;8.568;2022-07-17T05:18:43;14.87;64.91
40059;SHT31;25763;49.972;8.568;2022-07-17T05:21:09;15.02;64.52
40059;SHT31;25763;49.972;8.568;2022-07-17T05:23:34;15.10;64.49
40059;SHT31;25763;49.972;8.568;2022-07-17T05:26:00;15.15;63.61
40059;SHT31;25763;49.972;8.568;2022-07-17T05:28:25;15.27;63.98
40059;SHT31;25763;49.972;8.568;2022-07-17T05:30:50;15.37;63.59
40059;SHT31;25763;49.972;8.568;2022-07-17T05:33:16;15.58;65.30
40059;SHT31;25763;49.972;8.568;2022-07-17T05:35:41;15.66;62.69
40059;SHT31;25763;49.972;8.568;2022-07-17T05:38:06;15.79;63.16
40059;SHT31;25763;49.972;8.568;2022-07-17T05:40:32;15.96;62.69
40059;SHT31;25763;49.972;8.568;2022-07-17T05:42:57;16.11;61.01
40059;SHT31;25763;49.972;8.568;2022-07-17T05:45:23;16.29;59.10
40059;SHT31;25763;49.972;8.568;2022-07-17T05:47:49;16.33;59.63
40059;SHT31;25763;49.972;8.568;2022-07-17T05:50:14;16.47;59.57
40059;SHT31;25763;49.972;8.568;2022-07-17T05:52:39;16.56;58.13
40059;SHT31;25763;49.972;8.568;2022-07-17T05:55:05;16.74;59.34
40059;SHT31;25763;49.972;8.568;2022-07-17T05:57:30;16.80;57.74
40059;SHT31;25763;49.972;8.568;2022-07-17T05:59:56;16.98;58.57
40059;SHT31;25763;49.972;8.568;2022-07-17T06:02:21;17.16;57.51
40059;SHT31;25763;49.972;8.568;2022-07-17T06:04:46;17.30;57.40
40059;SHT31;25763;49.972;8.568;2022-07-17T06:07:12;17.30;56.04
40059;SHT31;25763;49.972;8.568;2022-07-17T06:09:37;17.55;56.34
40059;SHT31;25763;49.972;8.568;2022-07-17T06:12:03;17.60;55.09
40059;SHT31;25763;49.972;8.568;2022-07-17T06:14:28;17.75;55.17
40059;SHT31;25763;49.972;8.568;2022-07-17T06:16:53;17.77;55.19
40059;SHT31;25763;49.972;8.568;2022-07-17T06:19:19;17.82;54.12
40059;SHT31;25763;49.972;8.568;2022-07-17T06:21:44;17.99;56.19
40059;SHT31;25763;49.972;8.568;2022-07-17T06:24:09;18.16;54.20
40059;SHT31;25763;49.972;8.568;2022-07-17T06:26:35;18.27;54.13
40059;SHT31;25763;49.972;8.568;2022-07-17T06:29:00;18.24;53.23
40059;SHT31;25763;49.972;8.568;2022-07-17T06:31:26;18.50;54.46
40059;SHT31;25763;49.972;8.568;2022-07-17T06:33:51;18.50;52.96
40059;SHT31;25763;49.972;8.568;2022-07-17T06:36:16;18.77;54.17
40059;SHT31;25763;49.972;8.568;2022-07-17T06:38:42;18.89;52.29
40059;SHT31;25763;49.972;8.568;2022-07-17T06:41:07;19.14;53.43
40059;SHT31;25763;49.972;8.568;2022-07-17T06:43:32;19.03;50.94
40059;SHT31;25763;49.972;8.568;2022-07-17T06:45:58;19.15;52.24
40059;SHT31;25763;49.972;8.568;2022-07-17T06:48:23;19.08;51.05
40059;SHT31;25763;49.972;8.568;2022-07-17T06:50:49;19.32;51.63
40059;SHT31;25763;49.972;8.568;2022-07-17T06:53:14;19.34;50.87
40059;SHT31;25763;49.972;8.568;2022-07-17T06:55:40;19.39;50.48
40059;SHT31;25763;49.972;8.568;2022-07-17T06:58:05;19.59;50.61
40059;SHT31;25763;49.972;8.568;2022-07-17T07:00:31;19.56;50.48
40059;SHT31;25763;49.972;8.568;2022-07-17T07:02:56;19.69;50.60
40059;SHT31;25763;49.972;8.568;2022-07-17T07:05:22;19.74;49.77
40059;SHT31;25763;49.972;8.568;2022-07-17T07:07:47;19.74;51.44
40059;SHT31;25763;49.972;8.568;2022-07-17T07:10:13;19.81;49.52
40059;SHT31;25763;49.972;8.568;2022-07-17T07:12:38;19.81;50.19
40059;SHT31;25763;49.972;8.568;2022-07-17T07:15:04;20.07;50.72
40059;SHT31;25763;49.972;8.568;2022-07-17T07:17:30;20.17;48.71
40059;SHT31;25763;49.972;8.568;2022-07-17T07:19:57;20.47;50.10
40059;SHT31;25763;49.972;8.568;2022-07-17T07:22:23;20.74;51.63
40059;SHT31;25763;49.972;8.568;2022-07-17T07:24:48;20.80;47.62
40059;SHT31;25763;49.972;8.568;2022-07-17T07:27:14;20.91;48.30
40059;SHT31;25763;49.972;8.568;2022-07-17T07:29:39;20.83;48.29
40059;SHT31;25763;49.972;8.568;2022-07-17T07:32:04;21.02;47.82
40059;SHT31;25763;49.972;8.568;2022-07-17T07:34:30;20.87;47.10
40059;SHT31;25763;49.972;8.568;2022-07-17T07:36:55;20.80;46.45
40059;SHT31;25763;49.972;8.568;2022-07-17T07:39:20;20.94;45.66
40059;SHT31;25763;49.972;8.568;2022-07-17T07:41:46;21.09;45.95
40059;SHT31;25763;49.972;8.568;2022-07-17T07:44:11;21.33;48.97
40059;SHT31;25763;49.972;8.568;2022-07-17T07:46:37;21.43;47.46
40059;SHT31;25763;49.972;8.568;2022-07-17T07:49:03;21.61;47.25
40059;SHT31;25763;49.972;8.568;2022-07-17T07:51:28;21.84;46.25
40059;SHT31;25763;49.972;8.568;2022-07-17T07:53:54;21.85;44.79
40059;SHT31;25763;49.972;8.568;2022-07-17T07:56:19;21.82;44.78
40059;SHT31;25763;49.972;8.568;2022-07-17T07:58:45;21.99;46.27
40059;SHT31;25763;49.972;8.568;2022-07-17T08:01:10;22.04;43.78
40059;SHT31;25763;49.972;8.568;2022-07-17T08:03:36;22.05;45.05
40059;SHT31;25763;49.972;8.568;2022-07-17T08:06:01;22.15;43.69
40059;SHT31;25763;49.972;8.568;2022-07-17T08:08:26;22.09;43.85
40059;SHT31;25763;49.972;8.568;2022-07-17T08:10:52;22.29;44.07
40059;SHT31;25763;49.972;8.568;2022-07-17T08:13:17;22.45;45.17
40059;SHT31;25763;49.972;8.568;2022-07-17T08:15:42;22.49;43.89
40059;SHT31;25763;49.972;8.568;2022-07-17T08:18:08;22.36;42.62
40059;SHT31;25763;49.972;8.568;2022-07-17T08:20:33;22.47;43.38
40059;SHT31;25763;49.972;8.568;2022-07-17T08:22:58;22.51;43.26
40059;SHT31;25763;49.972;8.568;2022-07-17T08:25:24;22.78;43.27
40059;SHT31;25763;49.972;8.568;2022-07-17T08:27:49;22.86;43.04
40059;SHT31;25763;49.972;8.568;2022-07-17T08:30:15;23.03;43.79
40059;SHT31;25763;49.972;8.568;2022-07-17T08:32:41;22.99;42.61
40059;SHT31;25763;49.972;8.568;2022-07-17T08:35:07;23.24;42.77
40059;SHT31;25763;49.972;8.568;2022-07-17T08:37:47;23.06;39.82
40059;SHT31;25763;49.972;8.568;2022-07-17T08:40:24;23.09;40.88
40059;SHT31;25763;49.972;8.568;2022-07-17T08:42:51;23.24;39.65
40059;SHT31;25763;49.972;8.568;2022-07-17T08:45:17;23.37;41.39
40059;SHT31;25763;49.972;8.568;2022-07-17T08:47:43;23.48;40.66
40059;SHT31;25763;49.972;8.568;2022-07-17T08:50:09;23.41;39.51
40059;SHT31;25763;49.972;8.568;2022-07-17T08:52:37;23.55;44.09
40059;SHT31;25763;49.972;8.568;2022-07-17T08:55:04;23.52;38.98
40059;SHT31;25763;49.972;8.568;2022-07-17T08:57:30;23.45;39.07
40059;SHT31;25763;49.972;8.568;2022-07-17T08:59:55;23.62;39.60
40059;SHT31;25763;49.972;8.568;2022-07-17T09:02:21;23.31;39.65
40059;SHT31;25763;49.972;8.568;2022-07-17T09:04:53;23.83;41.95
40059;SHT31;25763;49.972;8.568;2022-07-17T09:07:19;23.90;40.19
40059;SHT31;25763;49.972;8.568;2022-07-17T09:09:50;23.86;41.25
40059;SHT31;25763;49.972;8.568;2022-07-17T09:12:16;24.18;42.29
40059;SHT31;25763;49.972;8.568;2022-07-17T09:14:41;24.18;37.35
40059;SHT31;25763;49.972;8.568;2022-07-17T09:17:09;24.31;41.00
40059;SHT31;25763;49.972;8.568;2022-07-17T09:19:36;24.53;40.46
40059;SHT31;25763;49.972;8.568;2022-07-17T09:22:18;24.31;38.89
40059;SHT31;25763;49.972;8.568;2022-07-17T09:24:55;24.49;37.88
40059;SHT31;25763;49.972;8.568;2022-07-17T09:30:02;24.51;38.29
40059;SHT31;25763;49.972;8.568;2022-07-17T09:32:33;24.55;40.20
40059;SHT31;25763;49.972;8.568;2022-07-17T09:35:00;24.79;40.07
40059;SHT31;25763;49.972;8.568;2022-07-17T09:37:28;24.79;38.24
40059;SHT31;25763;49.972;8.568;2022-07-17T09:39:54;24.83;38.32
40059;SHT31;25763;49.972;8.568;2022-07-17T09:42:27;24.66;36.49
40059;SHT31;25763;49.972;8.568;2022-07-17T09:45:07;24.52;37.24
40059;SHT31;25763;49.972;8.568;2022-07-17T09:47:36;24.77;37.46
40059;SHT31;25763;49.972;8.568;2022-07-17T09:50:04;24.86;37.44
40059;SHT31;25763;49.972;8.568;2022-07-17T09:52:32;25.22;37.43
40059;SHT31;25763;49.972;8.568;2022-07-17T09:54:59;25.36;35.80
40059;SHT31;25763;49.972;8.568;2022-07-17T09:57:30;25.35;37.39
40059;SHT31;25763;49.972;8.568;2022-07-17T10:00:01;25.43;35.78
40059;SHT31;25763;49.972;8.568;2022-07-17T10:02:28;24.99;35.64
40059;SHT31;25763;49.972;8.568;2022-07-17T10:04:53;24.82;34.81
40059;SHT31;25763;49.972;8.568;2022-07-17T10:07:21;25.06;36.27
40059;SHT31;25763;49.972;8.568;2022-07-17T10:09:47;25.46;38.66
40059;SHT31;25763;49.972;8.568;2022-07-17T10:12:14;25.93;37.08
40059;SHT31;25763;49.972;8.568;2022-07-17T10:14:40;26.15;35.73
40059;SHT31;25763;49.972;8.568;2022-07-17T10:17:11;26.11;35.94
40059;SHT31;25763;49.972;8.568;2022-07-17T10:22:11;26.60;36.60
40059;SHT31;25763;49.972;8.568;2022-07-17T10:24:45;26.86;36.56
40059;SHT31;25763;49.972;8.568;2022-07-17T10:29:45;26.26;33.30
40059;SHT31;25763;49.972;8.568;2022-07-17T10:32:18;26.43;32.13
40059;SHT31;25763;49.972;8.568;2022-07-17T10:34:45;25.87;32.59
40059;SHT31;25763;49.972;8.568;2022-07-17T10:39:40;26.61;36.12
40059;SHT31;25763;49.972;8.568;2022-07-17T10:47:58;26.50;32.08
40059;SHT31;25763;49.972;8.568;2022-07-17T10:53:06;27.15;34.00
40059;SHT31;25763;49.972;8.568;2022-07-17T10:55:33;26.71;31.48
40059;SHT31;25763;49.972;8.568;2022-07-17T10:57:59;26.67;33.57
40059;SHT31;25763;49.972;8.568;2022-07-17T11:00:25;27.24;32.64
40059;SHT31;25763;49.972;8.568;2022-07-17T11:02:51;27.64;33.22
40059;SHT31;25763;49.972;8.568;2022-07-17T11:05:17;27.47;30.13
40059;SHT31;25763;49.972;8.568;2022-07-17T11:07:55;27.40;32.81
40059;SHT31;25763;49.972;8.568;2022-07-17T11:10:23;27.51;30.09
40059;SHT31;25763;49.972;8.568;2022-07-17T11:12:51;27.27;30.95
40059;SHT31;25763;49.972;8.568;2022-07-17T11:15:17;27.36;29.76
40059;SHT31;25763;49.972;8.568;2022-07-17T11:17:47;27.46;30.43
40059;SHT31;25763;49.972;8.568;2022-07-17T11:20:13;27.34;29.61
40059;SHT31;25763;49.972;8.568;2022-07-17T11:22:38;27.78;31.17
40059;SHT31;25763;49.972;8.568;2022-07-17T11:25:05;28.17;29.63
40059;SHT31;25763;49.972;8.568;2022-07-17T11:27:31;28.45;29.52
40059;SHT31;25763;49.972;8.568;2022-07-17T11:29:58;28.30;29.19
40059;SHT31;25763;49.972;8.568;2022-07-17T11:32:30;28.10;29.19
40059;SHT31;25763;49.972;8.568;2022-07-17T11:34:56;27.91;31.03
40059;SHT31;25763;49.972;8.568;2022-07-17T11:37:22;28.22;32.14
40059;SHT31;25763;49.972;8.568;2022-07-17T11:39:49;28.10;27.42
40059;SHT31;25763;49.972;8.568;2022-07-17T11:42:20;27.98;27.62
40059;SHT31;25763;49.972;8.568;2022-07-17T11:44:46;27.85;27.38
40059;SHT31;25763;49.972;8.568;2022-07-17T11:47:20;28.09;28.98
40059;SHT31;25763;49.972;8.568;2022-07-17T11:49:46;28.36;30.43
40059;SHT31;25763;49.972;8.568;2022-07-17T11:52:17;28.41;26.28
40059;SHT31;25763;49.972;8.568;2022-07-17T11:54:55;28.44;27.76
40059;SHT31;25763;49.972;8.568;2022-07-17T11:57:22;28.71;28.58
40059;SHT31;25763;49.972;8.568;2022-07-17T11:59:48;28.71;25.51
40059;SHT31;25763;49.972;8.568;2022-07-17T12:02:19;29.18;28.93
40059;SHT31;25763;49.972;8.568;2022-07-17T12:04:57;29.41;27.05
40059;SHT31;25763;49.972;8.568;2022-07-17T12:07:38;28.61;24.89
40059;SHT31;25763;49.972;8.568;2022-07-17T12:10:15;28.81;23.16
40059;SHT31;25763;49.972;8.568;2022-07-17T12:12:58;28.67;24.56
40059;SHT31;25763;49.972;8.568;2022-07-17T12:15:41;28.81;23.94
40059;SHT31;25763;49.972;8.568;2022-07-17T12:18:18;28.39;22.35
40059;SHT31;25763;49.972;8.568;2022-07-17T12:20:46;29.09;25.60
40059;SHT31;25763;49.972;8.568;2022-07-17T12:23:34;29.66;26.23
40059;SHT31;25763;49.972;8.568;2022-07-17T12:26:11;30.24;26.57
40059;SHT31;25763;49.972;8.568;2022-07-17T12:28:38;30.56;25.91
40059;SHT31;25763;49.972;8.568;2022-07-17T12:31:04;29.94;22.91
40059;SHT31;25763;49.972;8.568;2022-07-17T12:33:29;29.97;26.79
40059;SHT31;25763;49.972;8.568;2022-07-17T12:35:55;30.04;26.71
40059;SHT31;25763;49.972;8.568;2022-07-17T12:38:20;30.00;26.60
40059;SHT31;25763;49.972;8.568;2022-07-17T12:40:46;30.42;26.72
40059;SHT31;25763;49.972;8.568;2022-07-17T12:43:11;30.47;24.31
40059;SHT31;25763;49.972;8.568;2022-07-17T12:45:37;30.32;27.39
40059;SHT31;25763;49.972;8.568;2022-07-17T12:48:02;30.70;27.26
40059;SHT31;25763;49.972;8.568;2022-07-17T12:50:28;30.80;23.97
40059;SHT31;25763;49.972;8.568;2022-07-17T12:52:53;30.76;26.61
40059;SHT31;25763;49.972;8.568;2022-07-17T12:55:19;30.73;25.64
40059;SHT31;25763;49.972;8.568;2022-07-17T12:57:44;30.14;24.07
40059;SHT31;25763;49.972;8.568;2022-07-17T13:00:11;29.79;26.42
40059;SHT31;25763;49.972;8.568;2022-07-17T13:02:36;29.63;24.62
40059;SHT31;25763;49.972;8.568;2022-07-17T13:05:02;29.40;24.55
40059;SHT31;25763;49.972;8.568;2022-07-17T13:07:27;29.65;25.81
40059;SHT31;25763;49.972;8.568;2022-07-17T13:09:53;30.20;25.74
40059;SHT31;25763;49.972;8.568;2022-07-17T13:12:18;29.82;23.38
40059;SHT31;25763;49.972;8.568;2022-07-17T13:14:44;30.09;24.81
40059;SHT31;25763;49.972;8.568;2022-07-17T13:17:09;30.59;27.99
40059;SHT31;25763;49.972;8.568;2022-07-17T13:19:35;30.97;26.52
40059;SHT31;25763;49.972;8.568;2022-07-17T13:22:02;31.24;26.17
40059;SHT31;25763;49.972;8.568;2022-07-17T13:24:29;30.56;24.38
40059;SHT31;25763;49.972;8.568;2022-07-17T13:26:55;30.70;25.04
40059;SHT31;25763;49.972;8.568;2022-07-17T13:29:20;31.15;25.10
40059;SHT31;25763;49.972;8.568;2022-07-17T13:31:46;30.84;22.53
40059;SHT31;25763;49.972;8.568;2022-07-17T13:34:11;30.98;24.15
40059;SHT31;25763;49.972;8.568;2022-07-17T13:36:37;30.32;22.48
40059;SHT31;25763;49.972;8.568;2022-07-17T13:39:03;30.79;24.84
40059;SHT31;25763;49.972;8.568;2022-07-17T13:41:29;30.79;22.06
40059;SHT31;25763;49.972;8.568;2022-07-17T13:43:56;30.00;22.33
40059;SHT31;25763;49.972;8.568;2022-07-17T13:46:21;29.81;23.30
40059;SHT31;25763;49.972;8.568;2022-07-17T13:48:46;29.85;23.21
40059;SHT31;25763;49.972;8.568;2022-07-17T13:51:13;30.14;22.88
40059;SHT31;25763;49.972;8.568;2022-07-17T13:53:39;30.07;22.28
40059;SHT31;25763;49.972;8.568;2022-07-17T13:56:04;30.06;24.36
40059;SHT31;25763;49.972;8.568;2022-07-17T13:58:30;30.70;22.42
40059;SHT31;25763;49.972;8.568;2022-07-17T14:00:58;30.95;25.42
40059;SHT31;25763;49.972;8.568;2022-07-17T14:03:23;31.52;23.77
40059;SHT31;25763;49.972;8.568;2022-07-17T14:05:48;31.86;23.80
40059;SHT31;25763;49.972;8.568;2022-07-17T14:08:14;32.05;20.89
40059;SHT31;25763;49.972;8.568;2022-07-17T14:10:40;32.21;24.10
40059;SHT31;25763;49.972;8.568;2022-07-17T14:13:06;32.31;23.92
40059;SHT31;25763;49.972;8.568;2022-07-17T14:15:31;32.56;24.17
40059;SHT31;25763;49.972;8.568;2022-07-17T14:17:56;32.67;23.98
40059;SHT31;25763;49.972;8.568;2022-07-17T14:20:22;32.79;23.05
40059;SHT31;25763;49.972;8.568;2022-07-17T14:22:47;32.80;22.36
40059;SHT31;25763;49.972;8.568;2022-07-17T14:25:13;32.73;22.46
40059;SHT31;25763;49.972;8.568;2022-07-17T14:27:38;32.73;22.07
40059;SHT31;25763;49.972;8.568;2022-07-17T14:30:04;32.71;23.46
40059;SHT31;25763;49.972;8.568;2022-07-17T14:32:29;32.60;23.07
40059;SHT31;25763;49.972;8.568;2022-07-17T14:34:55;32.56;22.97
40059;SHT31;25763;49.972;8.568;2022-07-17T14:37:20;31.91;20.80
40059;SHT31;25763;49.972;8.568;2022-07-17T14:39:45;30.65;21.48
40059;SHT31;25763;49.972;8.568;2022-07-17T14:42:11;30.93;22.44
40059;SHT31;25763;49.972;8.568;2022-07-17T14:44:36;30.79;22.71
40059;SHT31;25763;49.972;8.568;2022-07-17T14:47:02;31.15;22.18
40059;SHT31;25763;49.972;8.568;2022-07-17T14:49:27;31.18;22.47
40059;SHT31;25763;49.972;8.568;2022-07-17T14:51:52;30.39;22.34
40059;SHT31;25763;49.972;8.568;2022-07-17T14:54:18;29.92;23.70
40059;SHT31;25763;49.972;8.568;2022-07-17T14:56:44;30.25;25.81
40059;SHT31;25763;49.972;8.568;2022-07-17T14:59:09;31.00;25.30
40059;SHT31;25763;49.972;8.568;2022-07-17T15:01:35;30.90;23.77
40059;SHT31;25763;49.972;8.568;2022-07-17T15:04:00;31.17;24.22
40059;SHT31;25763;49.972;8.568;2022-07-17T15:06:25;31.47;22.98
40059;SHT31;25763;49.972;8.568;2022-07-17T15:08:51;30.93;22.86
40059;SHT31;25763;49.972;8.568;2022-07-17T15:11:16;31.25;25.65
40059;SHT31;25763;49.972;8.568;2022-07-17T15:13:42;31.47;24.40
40059;SHT31;25763;49.972;8.568;2022-07-17T15:16:07;31.32;21.85
40059;SHT31;25763;49.972;8.568;2022-07-17T15:18:33;31.55;21.61
40059;SHT31;25763;49.972;8.568;2022-07-17T15:20:58;31.01;23.04
40059;SHT31;25763;49.972;8.568;2022-07-17T15:23:23;31.14;24.48
40059;SHT31;25763;49.972;8.568;2022-07-17T15:25:49;31.59;26.84
40059;SHT31;25763;49.972;8.568;2022-07-17T15:28:14;30.90;21.22
40059;SHT31;25763;49.972;8.568;2022-07-17T15:30:40;30.59;23.67
40059;SHT31;25763;49.972;8.568;2022-07-17T15:33:05;30.20;22.52
40059;SHT31;25763;49.972;8.568;2022-07-17T15:35:30;30.47;22.49
40059;SHT31;25763;49.972;8.568;2022-07-17T15:37:56;30.61;23.63
40059;SHT31;25763;49.972;8.568;2022-07-17T15:40:24;31.14;25.26
40059;SHT31;25763;49.972;8.568;2022-07-17T15:42:50;31.59;24.89
40059;SHT31;25763;49.972;8.568;2022-07-17T15:45:15;31.90;27.19